Time;durP1;ratioP1;P1;durP2;ratioP2;P2;SDS_P1;SDS_P2;PMS_P1;PMS_P2;Temp;Humidity;BMP_temperature;BMP_pressure;BME280_temperature;BME280_humidity;BME280_pressure;Samples;Min_cycle;Max_cycle;Signal;HPM_P1;HPM_P2
2022/03/19 00:00:07;;;;;;;15.02;8.20;;;;;;;5.59;87.03;104203.25;5239289;28;20025;-66
2022/03/19 00:02:39;;;;;;;15.50;8.35;;;;;;;5.59;87.56;104204.13;5238803;28;20044;-66
2022/03/19 00:05:10;;;;;;;14.98;7.95;;;;;;;5.59;87.67;104212.06;5250567;28;20161;-66
2022/03/19 00:07:42;;;;;;;13.55;8.15;;;;;;;5.55;87.49;104207.66;5252078;28;20033;-66
2022/03/19 00:10:15;;;;;;;16.80;9.10;;;;;;;5.51;87.73;104205.91;5251151;28;20029;-66
2022/03/19 00:12:48;;;;;;;14.57;8.25;;;;;;;5.52;88.34;104202.34;5252622;28;20563;-66
2022/03/19 00:15:20;;;;;;;13.98;8.73;;;;;;;5.49;88.13;104202.38;5252989;28;20127;-66
2022/03/19 00:17:54;;;;;;;12.77;8.40;;;;;;;5.39;88.08;104206.81;5252035;28;20341;-66
2022/03/19 00:20:25;;;;;;;13.70;8.68;;;;;;;5.32;88.51;104198.88;5250779;28;20067;-66
2022/03/19 00:22:57;;;;;;;17.23;9.40;;;;;;;5.39;88.77;104209.47;5246540;28;20502;-66
2022/03/19 00:25:28;;;;;;;15.45;9.07;;;;;;;5.38;89.26;104202.38;5247452;28;20493;-66
2022/03/19 00:27:59;;;;;;;13.25;8.70;;;;;;;5.37;88.83;104202.38;5242760;28;20041;-66
2022/03/19 00:30:31;;;;;;;17.50;9.07;;;;;;;5.32;89.83;104204.16;5252111;28;20032;-66
2022/03/19 00:33:02;;;;;;;17.70;9.10;;;;;;;5.34;89.24;104202.41;5254422;28;20556;-66
2022/03/19 00:35:33;;;;;;;15.43;8.98;;;;;;;5.36;89.96;104197.97;5242986;28;20033;-66
2022/03/19 00:38:04;;;;;;;14.65;9.45;;;;;;;5.29;89.93;104194.44;5248150;28;20041;-66
2022/03/19 00:40:36;;;;;;;15.27;9.25;;;;;;;5.27;89.28;104189.16;5249014;28;20406;-66
2022/03/19 00:43:07;;;;;;;17.80;9.57;;;;;;;5.28;89.42;104190.91;5245993;28;20501;-66
2022/03/19 00:45:38;;;;;;;14.73;9.40;;;;;;;5.16;89.41;104185.63;5244903;28;20455;-66
2022/03/19 00:48:10;;;;;;;16.15;10.10;;;;;;;5.20;89.93;104194.47;5238931;28;20569;-66
2022/03/19 00:50:42;;;;;;;15.48;9.18;;;;;;;5.17;90.12;104186.50;5245819;28;20053;-66
2022/03/19 00:53:13;;;;;;;13.90;9.20;;;;;;;5.15;90.09;104194.44;5248200;28;20108;-66
2022/03/19 00:55:44;;;;;;;17.83;10.02;;;;;;;5.02;89.98;104188.25;5239012;28;20025;-66
2022/03/19 00:58:16;;;;;;;15.85;9.75;;;;;;;5.06;90.18;104189.13;5244409;28;20032;-66
2022/03/19 01:00:47;;;;;;;14.77;10.20;;;;;;;5.07;91.00;104186.50;5254823;28;20064;-66
2022/03/19 01:03:18;;;;;;;16.10;9.80;;;;;;;5.01;90.62;104181.22;5252860;28;20440;-66
2022/03/19 01:05:50;;;;;;;18.05;10.15;;;;;;;4.98;90.84;104183.84;5251920;28;20047;-66
2022/03/19 01:08:21;;;;;;;18.67;10.45;;;;;;;5.05;91.49;104184.75;5251732;28;20031;-66
2022/03/19 01:10:52;;;;;;;18.45;10.63;;;;;;;4.98;90.93;104185.63;5238760;28;20285;-66
2022/03/19 01:13:24;;;;;;;17.30;10.63;;;;;;;4.96;91.36;104177.66;5242776;28;20049;-66
2022/03/19 01:15:55;;;;;;;18.05;11.18;;;;;;;4.88;91.32;104177.66;5245675;28;20049;-66
2022/03/19 01:18:26;;;;;;;16.75;10.35;;;;;;;4.87;91.62;104181.19;5247460;28;20033;-66
2022/03/19 01:20:57;;;;;;;17.65;11.13;;;;;;;4.81;91.72;104180.28;5240938;28;20024;-66
2022/03/19 01:23:29;;;;;;;17.27;11.55;;;;;;;4.84;92.50;104188.25;5239956;28;20039;-66
2022/03/19 01:26:00;;;;;;;21.20;11.15;;;;;;;4.80;92.10;104173.25;5246513;28;20041;-66
2022/03/19 01:28:32;;;;;;;17.80;11.77;;;;;;;4.81;92.65;104181.16;5249814;28;20037;-66
2022/03/19 01:31:03;;;;;;;17.83;11.57;;;;;;;4.76;92.75;104171.50;5243901;28;20025;-66
2022/03/19 01:33:34;;;;;;;20.58;11.85;;;;;;;4.79;92.71;104180.28;5241810;28;20027;-66
2022/03/19 01:36:06;;;;;;;19.25;12.23;;;;;;;4.76;93.42;104168.84;5250923;28;20041;-66
2022/03/19 01:38:37;;;;;;;19.23;12.32;;;;;;;4.68;93.10;104166.19;5246469;28;20025;-66
2022/03/19 01:41:09;;;;;;;19.35;13.18;;;;;;;4.70;93.57;104173.22;5241497;28;20032;-66
2022/03/19 01:43:40;;;;;;;21.05;13.18;;;;;;;4.69;93.90;104162.66;5247156;28;20033;-66
2022/03/19 01:46:11;;;;;;;21.27;13.20;;;;;;;4.68;93.38;104164.41;5248548;28;20029;-66
2022/03/19 01:48:43;;;;;;;23.75;13.10;;;;;;;4.68;93.75;104163.53;5244596;28;20033;-66
2022/03/19 01:51:14;;;;;;;19.98;13.85;;;;;;;4.67;94.06;104161.75;5252604;28;20072;-66
2022/03/19 01:53:45;;;;;;;20.40;13.55;;;;;;;4.63;94.23;104152.06;5247402;28;20466;-66
2022/03/19 01:56:17;;;;;;;21.65;13.90;;;;;;;4.60;94.45;104157.34;5248888;28;20514;-66
2022/03/19 01:58:49;;;;;;;19.13;13.82;;;;;;;4.53;93.83;104155.56;5242652;28;20040;-66
2022/03/19 02:01:20;;;;;;;19.85;14.35;;;;;;;4.57;94.49;104150.28;5243885;28;20550;-66
2022/03/19 02:03:52;;;;;;;21.50;14.65;;;;;;;4.56;94.97;104153.78;5243264;28;20048;-66
2022/03/19 02:06:26;;;;;;;25.05;14.95;;;;;;;4.58;94.68;104149.38;5248003;28;20382;-66
2022/03/19 02:08:58;;;;;;;20.38;15.95;;;;;;;4.51;94.92;104147.63;5249217;28;20033;-66
2022/03/19 02:11:30;;;;;;;21.17;16.02;;;;;;;4.49;95.64;104146.75;5248241;28;20779;-66
2022/03/19 02:14:03;;;;;;;25.17;15.80;;;;;;;4.48;95.75;104140.56;5252933;28;20049;-66
2022/03/19 02:16:34;;;;;;;24.20;16.33;;;;;;;4.49;96.24;104133.53;5250370;28;20033;-66
2022/03/19 02:19:05;;;;;;;23.10;16.13;;;;;;;4.47;96.36;104132.66;5252512;28;20035;-66
2022/03/19 02:21:41;;;;;;;25.35;17.00;;;;;;;4.45;96.47;104129.09;5252797;28;20044;-66
2022/03/19 02:27:04;;;;;;;24.58;16.55;;;;;;;4.38;96.44;104140.56;5246811;28;20032;-66
2022/03/19 02:29:36;;;;;;;29.45;18.10;;;;;;;4.37;96.76;104114.97;5245458;28;20021;-66
2022/03/19 02:32:07;;;;;;;24.75;17.50;;;;;;;4.38;96.90;104117.63;5247385;28;20379;-66
2022/03/19 02:34:39;;;;;;;22.85;17.33;;;;;;;4.36;97.39;104115.88;5244045;28;20025;-66
2022/03/19 02:37:10;;;;;;;26.83;17.33;;;;;;;4.35;97.78;104111.44;5246088;28;20449;-66
2022/03/19 02:39:41;;;;;;;27.15;17.90;;;;;;;4.35;97.81;104101.75;5243464;28;20028;-66
2022/03/19 02:42:17;;;;;;;30.00;17.92;;;;;;;4.31;97.83;104106.19;5242115;28;20120;-66
2022/03/19 02:44:49;;;;;;;26.42;17.45;;;;;;;4.34;98.44;104101.78;5251752;28;20033;-66
2022/03/19 02:47:20;;;;;;;23.10;16.83;;;;;;;4.30;98.10;104100.88;5241301;28;20375;-66
2022/03/19 02:49:51;;;;;;;28.23;17.45;;;;;;;4.26;98.19;104105.28;5249762;28;20121;-66
2022/03/19 02:52:22;;;;;;;24.95;17.90;;;;;;;4.27;98.63;104096.44;5242219;28;20033;-66
2022/03/19 02:54:54;;;;;;;26.65;17.80;;;;;;;4.23;98.24;104092.03;5252329;28;20021;-66
2022/03/19 02:57:25;;;;;;;30.88;17.80;;;;;;;4.21;98.71;104096.44;5251151;28;20036;-66
2022/03/19 02:59:56;;;;;;;29.83;18.52;;;;;;;4.19;99.02;104095.56;5249388;28;20029;-66
2022/03/19 03:02:27;;;;;;;28.80;18.58;;;;;;;4.19;99.37;104089.41;5244296;28;20458;-66
2022/03/19 03:04:59;;;;;;;26.63;17.60;;;;;;;4.17;99.62;104089.38;5246883;28;20052;-66
2022/03/19 03:07:30;;;;;;;29.02;18.67;;;;;;;4.20;100.00;104096.44;5249469;28;20032;-66
2022/03/19 03:10:01;;;;;;;30.95;18.73;;;;;;;4.18;100.00;104092.91;5247449;28;20364;-66
2022/03/19 03:12:33;;;;;;;28.42;17.20;;;;;;;4.19;100.00;104110.53;5249965;28;20474;-66
2022/03/19 03:15:05;;;;;;;29.80;17.48;;;;;;;4.15;100.00;104104.34;5243552;28;20053;-66
2022/03/19 03:17:36;;;;;;;26.95;17.27;;;;;;;4.13;100.00;104103.47;5245048;28;20037;-66
2022/03/19 03:20:08;;;;;;;28.80;17.92;;;;;;;4.08;100.00;104100.78;5251961;28;20032;-66
2022/03/19 03:22:42;;;;;;;28.02;17.90;;;;;;;4.11;100.00;104098.16;5248765;28;20039;-66
2022/03/19 03:25:13;;;;;;;31.48;17.80;;;;;;;4.07;100.00;104101.69;5247117;28;20392;-66
2022/03/19 03:27:46;;;;;;;26.77;18.40;;;;;;;4.05;100.00;104108.72;5247752;28;20029;-66
2022/03/19 03:30:18;;;;;;;29.50;18.02;;;;;;;3.98;100.00;104101.66;5247089;28;20029;-66
2022/03/19 03:32:49;;;;;;;26.90;17.88;;;;;;;3.95;100.00;104103.41;5250241;28;20029;-66
2022/03/19 03:35:25;;;;;;;29.38;17.77;;;;;;;3.96;100.00;104106.06;5247801;28;20037;-66
2022/03/19 03:37:56;;;;;;;28.02;17.65;;;;;;;3.93;100.00;104109.56;5249873;28;20451;-66
2022/03/19 03:40:28;;;;;;;32.92;18.50;;;;;;;3.91;100.00;104100.75;5250943;28;20036;-66
2022/03/19 03:42:59;;;;;;;25.58;17.58;;;;;;;3.97;100.00;104101.63;5251578;28;20041;-66
2022/03/19 03:45:31;;;;;;;25.95;18.48;;;;;;;3.93;100.00;104103.38;5250029;28;20045;-66
2022/03/19 03:48:02;;;;;;;29.63;19.23;;;;;;;3.91;100.00;104100.75;5250613;28;20035;-65
2022/03/19 03:50:35;;;;;;;29.23;18.48;;;;;;;3.93;100.00;104101.66;5252524;28;20036;-66
2022/03/19 03:53:08;;;;;;;28.60;16.90;;;;;;;3.94;100.00;104097.25;5246795;28;20158;-67
2022/03/19 03:55:39;;;;;;;29.05;18.27;;;;;;;3.91;100.00;104098.13;5249800;28;20029;-66
2022/03/19 03:58:11;;;;;;;31.15;17.77;;;;;;;3.88;100.00;104097.22;5244834;28;20040;-66
2022/03/19 04:00:43;;;;;;;27.33;17.73;;;;;;;3.89;100.00;104096.31;5238958;28;20037;-66
2022/03/19 04:03:14;;;;;;;28.17;17.38;;;;;;;3.86;100.00;104091.03;5250424;28;20040;-66
2022/03/19 04:05:46;;;;;;;24.70;17.10;;;;;;;3.84;100.00;104087.53;5249366;28;20036;-66
2022/03/19 04:08:17;;;;;;;26.25;17.88;;;;;;;3.83;100.00;104089.25;5250661;28;20103;-65
2022/03/19 04:10:48;;;;;;;28.58;17.27;;;;;;;3.82;100.00;104092.78;5252812;28;20036;-66
2022/03/19 04:13:19;;;;;;;26.92;17.50;;;;;;;3.81;100.00;104092.78;5244975;28;20040;-66
2022/03/19 04:15:51;;;;;;;28.27;17.10;;;;;;;3.86;100.00;104091.03;5230953;28;20059;-66
2022/03/19 04:18:22;;;;;;;28.77;18.15;;;;;;;3.75;100.00;104085.72;5237510;28;20073;-66
2022/03/19 04:20:54;;;;;;;24.73;16.50;;;;;;;3.75;100.00;104085.72;5234249;28;20131;-65
2022/03/19 04:23:25;;;;;;;30.20;17.48;;;;;;;3.73;100.00;104083.06;5246912;28;20039;-66
2022/03/19 04:25:56;;;;;;;24.77;17.15;;;;;;;3.69;100.00;104077.75;5237302;28;20039;-66
2022/03/19 04:28:28;;;;;;;27.05;18.17;;;;;;;3.70;100.00;104085.69;5242864;28;20036;-66
2022/03/19 04:30:59;;;;;;;27.15;17.00;;;;;;;3.64;100.00;104084.78;5235444;28;20141;-66
2022/03/19 04:33:31;;;;;;;26.80;16.92;;;;;;;3.64;100.00;104082.13;5242567;28;20367;-66
2022/03/19 04:38:52;;;;;;;29.98;16.70;;;;;;;3.60;100.00;104083.88;5244235;28;20048;-65
2022/03/19 04:41:24;;;;;;;23.67;16.58;;;;;;;3.60;100.00;104077.72;5243714;28;20025;-65
2022/03/19 04:43:55;;;;;;;26.48;17.33;;;;;;;3.61;100.00;104080.38;5242345;28;20110;-65
2022/03/19 04:46:27;;;;;;;26.90;16.05;;;;;;;3.58;100.00;104071.53;5243750;28;20111;-66
2022/03/19 04:48:59;;;;;;;31.45;17.00;;;;;;;3.55;100.00;104072.44;5243004;28;20028;-66
2022/03/19 04:51:32;;;;;;;25.08;17.10;;;;;;;3.51;100.00;104068.88;5240160;28;20144;-66
2022/03/19 04:54:05;;;;;;;25.60;17.27;;;;;;;3.52;100.00;104072.41;5246450;28;20027;-66
2022/03/19 04:56:36;;;;;;;26.95;16.58;;;;;;;3.47;100.00;104072.38;5245900;28;20017;-66
2022/03/19 04:59:11;;;;;;;27.00;17.63;;;;;;;3.45;100.00;104073.22;5246350;28;20490;-66
2022/03/19 05:01:43;;;;;;;27.20;17.33;;;;;;;3.49;100.00;104064.44;5244300;28;20394;-66
2022/03/19 05:04:14;;;;;;;31.08;16.80;;;;;;;3.47;100.00;104077.66;5247375;28;20025;-66
2022/03/19 05:06:46;;;;;;;26.60;16.13;;;;;;;3.46;100.00;104085.56;5241864;28;20832;-66
2022/03/19 05:12:07;;;;;;;29.25;16.23;;;;;;;3.35;100.00;104074.94;5240085;28;20501;-66
2022/03/19 05:14:38;;;;;;;30.13;16.83;;;;;;;3.37;100.00;104074.94;5244364;28;20045;-66
2022/03/19 05:17:10;;;;;;;30.42;17.48;;;;;;;3.30;100.00;104071.41;5245188;28;20094;-66
2022/03/19 05:19:41;;;;;;;26.35;16.75;;;;;;;3.32;100.00;104069.66;5240032;28;20360;-65
2022/03/19 05:22:12;;;;;;;26.77;16.63;;;;;;;3.26;100.00;104073.16;5243715;28;20479;-66
2022/03/19 05:24:44;;;;;;;27.85;16.73;;;;;;;3.29;100.00;104077.53;5242503;28;20036;-66
2022/03/19 05:27:16;;;;;;;28.42;16.67;;;;;;;3.27;100.00;104080.16;5245197;28;20025;-66
2022/03/19 05:29:47;;;;;;;28.27;17.42;;;;;;;3.25;100.00;104079.28;5248456;28;20407;-66
2022/03/19 05:32:19;;;;;;;29.15;18.13;;;;;;;3.27;100.00;104081.94;5244657;28;20021;-66
2022/03/19 05:34:51;;;;;;;30.77;17.45;;;;;;;3.26;100.00;104073.16;5250031;28;20021;-66
2022/03/19 05:37:22;;;;;;;28.70;17.48;;;;;;;3.23;100.00;104088.06;5243454;28;20041;-66
2022/03/19 05:39:55;;;;;;;31.08;17.92;;;;;;;3.24;100.00;104080.16;5251452;28;20037;-66
2022/03/19 05:42:28;;;;;;;28.85;18.80;;;;;;;3.21;100.00;104074.00;5242699;28;20116;-65
2022/03/19 05:44:59;;;;;;;34.97;18.63;;;;;;;3.27;100.00;104081.94;5246560;28;20546;-65
2022/03/19 05:47:30;;;;;;;33.38;17.27;;;;;;;3.23;100.00;104086.31;5245448;28;20371;-65
2022/03/19 05:50:02;;;;;;;36.30;18.90;;;;;;;3.24;100.00;104074.91;5245923;28;20094;-65
2022/03/19 05:52:34;;;;;;;29.45;17.60;;;;;;;3.24;100.00;104077.53;5246816;28;20024;-65
2022/03/19 05:55:06;;;;;;;29.77;18.27;;;;;;;3.25;100.00;104081.03;5243103;28;20060;-66
2022/03/19 05:57:38;;;;;;;33.80;18.00;;;;;;;3.27;100.00;104084.56;5241735;28;20025;-66
2022/03/19 06:00:11;;;;;;;32.03;19.27;;;;;;;3.24;100.00;104080.16;5243361;28;20044;-65
2022/03/19 06:02:43;;;;;;;30.73;18.05;;;;;;;3.30;100.00;104080.19;5245856;28;20429;-65
2022/03/19 06:05:14;;;;;;;32.13;18.60;;;;;;;3.31;100.00;104079.31;5243254;28;20034;-65
2022/03/19 06:07:46;;;;;;;29.27;18.42;;;;;;;3.32;100.00;104082.84;5246722;28;20163;-65
2022/03/19 06:10:17;;;;;;;28.30;18.35;;;;;;;3.34;100.00;104081.97;5241732;28;20389;-66
2022/03/19 06:12:48;;;;;;;28.27;19.02;;;;;;;3.39;100.00;104082.00;5243902;28;20043;-66
2022/03/19 06:15:19;;;;;;;29.73;18.05;;;;;;;3.37;100.00;104088.16;5246097;28;20053;-65
2022/03/19 06:17:51;;;;;;;32.55;18.40;;;;;;;3.38;100.00;104087.28;5247225;28;20025;-65
2022/03/19 06:20:23;;;;;;;27.52;17.80;;;;;;;3.42;100.00;104089.94;5241463;28;20037;-66
2022/03/19 06:22:54;;;;;;;29.90;17.90;;;;;;;3.46;100.00;104097.00;5249963;28;20415;-66
2022/03/19 06:25:26;;;;;;;30.30;17.27;;;;;;;3.51;100.00;104089.13;5247901;28;20043;-66
2022/03/19 06:27:57;;;;;;;30.60;18.35;;;;;;;3.53;100.00;104087.38;5252710;28;20167;-66
2022/03/19 06:30:31;;;;;;;30.80;18.67;;;;;;;3.53;100.00;104090.88;5243684;28;20036;-66
2022/03/19 06:33:06;;;;;;;30.05;18.48;;;;;;;3.59;100.00;104084.75;5248840;28;20044;-66
2022/03/19 06:38:29;;;;;;;29.30;18.13;;;;;;;3.68;100.00;104087.47;5249087;28;20233;-66
2022/03/19 06:41:01;;;;;;;32.13;18.08;;;;;;;3.72;100.00;104098.88;5248366;28;20072;-66
2022/03/19 06:43:32;;;;;;;25.55;17.33;;;;;;;3.81;100.00;104085.72;5246283;28;20056;-66
2022/03/19 06:46:04;;;;;;;28.95;17.95;;;;;;;3.86;100.00;104093.69;5246091;28;20029;-66
2022/03/19 06:48:35;;;;;;;33.55;18.38;;;;;;;3.92;100.00;104084.00;5248621;28;20032;-66
2022/03/19 06:51:06;;;;;;;28.65;17.45;;;;;;;3.99;100.00;104098.16;5248342;28;20482;-66
2022/03/19 06:53:38;;;;;;;28.85;17.33;;;;;;;4.03;100.00;104096.41;5252361;28;20352;-66
2022/03/19 06:56:09;;;;;;;27.95;17.15;;;;;;;4.06;100.00;104096.41;5252389;28;20402;-66
2022/03/19 06:58:41;;;;;;;26.65;17.50;;;;;;;4.09;100.00;104094.66;5250580;28;20563;-66
2022/03/19 07:01:15;;;;;;;29.65;17.33;;;;;;;4.16;100.00;104089.38;5246187;28;20514;-66
2022/03/19 07:03:47;;;;;;;;;;;;;;;4.13;100.00;104088.50;5241763;28;20064;-66
2022/03/19 07:06:19;;;;;;;26.20;17.33;;;;;;;4.22;100.00;104092.03;5247298;28;20398;-66
2022/03/19 07:08:50;;;;;;;30.00;17.10;;;;;;;4.30;100.00;104087.66;5249860;28;20051;-66
2022/03/19 07:11:21;;;;;;;27.05;16.40;;;;;;;4.37;100.00;104085.91;5242017;28;20421;-67
2022/03/19 07:13:52;;;;;;;29.95;16.42;;;;;;;4.37;100.00;104093.84;5240942;28;20456;-66
2022/03/19 07:16:25;;;;;;;24.75;15.98;;;;;;;4.42;100.00;104085.03;5253169;28;20046;-66
2022/03/19 07:18:56;;;;;;;25.73;16.30;;;;;;;4.46;100.00;104092.09;5252295;28;20048;-66
2022/03/19 07:21:27;;;;;;;25.02;15.52;;;;;;;4.53;100.00;104092.13;5253066;28;20175;-67
2022/03/19 07:23:59;;;;;;;27.95;15.55;;;;;;;4.59;100.00;104086.81;5252848;28;20037;-66
2022/03/19 07:26:32;;;;;;;27.67;15.43;;;;;;;4.62;100.00;104093.00;5253158;28;20036;-66
2022/03/19 07:29:04;;;;;;;27.63;16.33;;;;;;;4.69;100.00;104084.16;5249819;28;20041;-66
2022/03/19 07:31:35;;;;;;;27.58;15.95;;;;;;;4.74;100.00;104083.28;5247034;28;20828;-66
2022/03/19 07:34:07;;;;;;;26.13;14.85;;;;;;;4.81;100.00;104083.28;5252520;28;20025;-66
2022/03/19 07:36:38;;;;;;;24.33;15.77;;;;;;;4.89;100.00;104084.19;5251852;28;20434;-66
2022/03/19 07:39:09;;;;;;;23.95;15.13;;;;;;;4.97;100.00;104086.84;5246115;28;20025;-66
2022/03/19 07:41:48;;;;;;;27.70;14.77;;;;;;;5.06;100.00;104085.91;5248788;28;20120;-66
2022/03/19 07:44:19;;;;;;;23.05;14.43;;;;;;;5.13;100.00;104079.75;5252538;28;20083;-66
2022/03/19 07:46:51;;;;;;;22.75;14.25;;;;;;;5.20;100.00;104080.63;5249175;28;20029;-66
2022/03/19 07:49:22;;;;;;;26.73;14.05;;;;;;;5.33;100.00;104079.72;5250716;28;20044;-66
2022/03/19 07:51:55;;;;;;;20.50;13.40;;;;;;;5.40;100.00;104081.44;5248610;28;20098;-66
2022/03/19 07:54:27;;;;;;;22.20;10.68;;;;;;;5.45;100.00;104069.09;5249981;28;20029;-66
2022/03/19 07:56:59;;;;;;;22.58;13.35;;;;;;;5.56;100.00;104070.81;5249268;28;20087;-66
2022/03/19 07:59:30;;;;;;;24.20;13.55;;;;;;;5.62;100.00;104074.34;5253068;28;20053;-66
2022/03/19 08:02:02;;;;;;;19.30;13.23;;;;;;;5.68;100.00;104079.59;5248076;28;20163;-66
2022/03/19 08:04:33;;;;;;;20.85;12.80;;;;;;;5.76;99.51;104079.56;5248501;28;20033;-66
2022/03/19 08:07:05;;;;;;;22.17;12.88;;;;;;;5.82;99.64;104066.28;5252778;28;20033;-66
2022/03/19 08:09:36;;;;;;;23.90;13.63;;;;;;;5.89;99.71;104065.38;5242714;28;20035;-66
2022/03/19 08:12:08;;;;;;;22.95;12.48;;;;;;;6.02;98.19;104078.59;5250250;28;20513;-66
2022/03/19 08:14:40;;;;;;;20.23;12.90;;;;;;;6.14;98.00;104065.28;5249002;28;20563;-66
2022/03/19 08:17:12;;;;;;;18.40;12.38;;;;;;;6.16;97.05;104063.50;5240213;28;20036;-66
2022/03/19 08:19:45;;;;;;;19.80;10.90;;;;;;;6.29;97.09;104064.31;5248039;28;20037;-66
2022/03/19 08:22:16;;;;;;;20.05;11.10;;;;;;;6.32;95.97;104061.63;5250951;28;20463;-66
2022/03/19 08:24:47;;;;;;;16.90;11.15;;;;;;;6.46;95.08;104073.03;5252734;28;20087;-66
2022/03/19 08:27:19;;;;;;;18.60;10.57;;;;;;;6.55;94.39;104079.16;5252355;28;20072;-66
2022/03/19 08:29:51;;;;;;;16.60;10.02;;;;;;;6.65;92.61;104080.84;5252363;28;20395;-66
2022/03/19 08:32:22;;;;;;;20.17;9.88;;;;;;;6.80;91.87;104083.38;5254215;28;20043;-66
2022/03/19 08:34:53;;;;;;;18.08;10.10;;;;;;;6.85;92.74;104078.91;5252735;28;20032;-66
2022/03/19 08:37:26;;;;;;;14.52;10.00;;;;;;;6.93;92.78;104070.88;5253887;28;20491;-67
2022/03/19 08:40:16;;;;;;;16.95;10.10;;;;;;;7.05;91.22;104081.38;5254254;28;20082;-67
2022/03/19 08:42:52;;;;;;;18.40;9.65;;;;;;;7.17;90.42;104076.84;5252381;28;20025;-67
2022/03/19 08:45:24;;;;;;;18.90;10.13;;;;;;;7.24;89.24;104068.78;5251449;28;20408;-67
2022/03/19 08:47:55;;;;;;;14.88;9.48;;;;;;;7.29;89.73;104062.53;5252792;28;20036;-67
2022/03/19 08:50:27;;;;;;;18.05;9.32;;;;;;;7.38;87.79;104071.31;5253094;28;20045;-67
2022/03/19 08:52:58;;;;;;;14.45;9.57;;;;;;;7.53;87.54;104062.28;5254059;28;20822;-67
2022/03/19 08:55:30;;;;;;;20.75;9.43;;;;;;;7.58;86.44;104063.09;5250839;28;20402;-67
2022/03/19 08:58:01;;;;;;;17.73;8.70;;;;;;;7.66;87.21;104069.19;5252469;28;20048;-67
2022/03/19 09:00:32;;;;;;;16.88;8.90;;;;;;;7.74;85.46;104063.78;5254168;28;20170;-67
2022/03/19 09:03:03;;;;;;;12.35;8.02;;;;;;;7.89;84.63;104065.38;5252761;28;20041;-67
2022/03/19 09:05:35;;;;;;;16.08;8.27;;;;;;;7.97;83.90;104060.81;5252706;28;20025;-67
2022/03/19 09:08:06;;;;;;;17.63;8.75;;;;;;;8.09;83.82;104062.41;5254056;28;20029;-67
2022/03/19 09:10:37;;;;;;;15.63;8.77;;;;;;;8.14;83.95;104065.91;5251680;28;20056;-67
2022/03/19 09:13:08;;;;;;;15.50;8.75;;;;;;;8.27;83.80;104063.94;5253449;28;20502;-67
2022/03/19 09:15:40;;;;;;;14.38;8.00;;;;;;;8.32;83.08;104056.78;5253143;28;20049;-67
2022/03/19 09:18:11;;;;;;;14.40;8.05;;;;;;;8.38;82.13;104056.69;5251649;28;20078;-67
2022/03/19 09:20:43;;;;;;;16.33;8.30;;;;;;;8.46;81.93;104059.25;5252539;28;20033;-67
2022/03/19 09:23:14;;;;;;;17.35;8.52;;;;;;;8.54;81.78;104051.16;5253987;28;20021;-67
2022/03/19 09:25:45;;;;;;;17.10;8.48;;;;;;;8.60;80.34;104046.59;5251251;28;20055;-66
2022/03/19 09:28:17;;;;;;;16.55;8.15;;;;;;;8.68;80.41;104053.59;5253638;28;20115;-67
2022/03/19 09:30:48;;;;;;;16.23;8.68;;;;;;;8.73;80.10;104052.59;5252650;28;20403;-67
2022/03/19 09:33:20;;;;;;;15.35;7.70;;;;;;;8.77;80.56;104053.44;5254014;28;20048;-67
2022/03/19 09:35:52;;;;;;;15.80;7.93;;;;;;;8.88;78.30;104053.22;5251264;28;20403;-67
2022/03/19 09:38:23;;;;;;;13.05;8.02;;;;;;;8.96;77.59;104043.34;5251103;28;20414;-67
2022/03/19 09:40:56;;;;;;;14.38;7.15;;;;;;;9.01;76.86;104046.78;5252575;28;20029;-67
2022/03/19 09:43:29;;;;;;;13.95;7.07;;;;;;;9.09;76.20;104046.63;5252905;28;20044;-67
2022/03/19 09:46:02;;;;;;;17.30;8.02;;;;;;;9.15;77.10;104041.22;5251676;28;20091;-67
2022/03/19 09:48:34;;;;;;;14.18;7.07;;;;;;;9.26;74.90;104030.31;5253502;28;20386;-67
2022/03/19 09:51:08;;;;;;;15.85;6.65;;;;;;;9.30;76.16;104024.94;5253693;28;20033;-67
2022/03/19 09:53:41;;;;;;;12.57;6.50;;;;;;;9.35;74.45;104024.81;5250594;28;20074;-67
2022/03/19 09:56:12;;;;;;;13.93;6.60;;;;;;;9.38;73.49;104016.78;5253407;28;20102;-67
2022/03/19 09:58:44;;;;;;;13.68;6.63;;;;;;;9.45;73.05;104021.03;5257145;28;20029;-67
2022/03/19 10:01:18;;;;;;;13.80;6.20;;;;;;;9.53;71.40;104016.47;5256320;28;20025;-67
2022/03/19 10:03:50;;;;;;;12.82;6.18;;;;;;;9.58;70.73;104021.69;5256428;28;20074;-67
2022/03/19 10:09:17;;;;;;;9.68;5.53;;;;;;;9.66;69.89;104001.06;5255127;28;20036;-67
2022/03/19 10:11:50;;;;;;;13.60;5.45;;;;;;;9.79;68.16;104004.34;5255030;28;20028;-67
2022/03/19 10:14:24;;;;;;;10.93;4.82;;;;;;;9.80;65.22;104000.78;5255221;28;20045;-67
2022/03/19 10:16:57;;;;;;;14.25;5.43;;;;;;;9.86;64.88;104002.44;5256094;28;20021;-67
2022/03/19 10:19:28;;;;;;;12.07;5.00;;;;;;;9.92;65.36;103989.81;5257212;28;20032;-67
2022/03/19 10:22:09;;;;;;;14.85;6.03;;;;;;;9.96;63.81;103985.28;5254855;28;20053;-67
2022/03/19 10:24:40;;;;;;;12.50;5.05;;;;;;;9.97;64.55;103976.34;5255975;28;20024;-67
2022/03/19 10:27:20;;;;;;;15.02;5.28;;;;;;;10.07;64.62;103985.91;5255527;28;20489;-67
2022/03/19 10:30:04;;;;;;;12.15;5.10;;;;;;;10.04;65.34;103974.44;5255854;28;20074;-67
2022/03/19 10:32:39;;;;;;;8.73;3.97;;;;;;;10.09;60.89;103959.19;5256130;28;20131;-67
2022/03/19 10:35:31;;;;;;;11.35;5.03;;;;;;;10.19;63.86;103960.72;5255752;28;20075;-67
2022/03/19 10:38:16;;;;;;;11.07;4.35;;;;;;;10.25;60.87;103962.34;5256502;28;20032;-67
2022/03/19 10:40:49;;;;;;;10.50;4.82;;;;;;;10.37;60.29;103960.31;5254366;28;20119;-67
2022/03/19 10:43:23;;;;;;;10.80;5.10;;;;;;;10.37;59.28;103952.28;5253428;28;20029;-66
2022/03/19 10:45:54;;;;;;;9.07;4.07;;;;;;;10.42;56.32;103937.94;5256323;28;20074;-67
2022/03/19 10:48:28;;;;;;;9.95;4.10;;;;;;;10.52;55.12;103939.44;5252600;28;20509;-67
2022/03/19 10:51:02;;;;;;;11.05;3.53;;;;;;;10.53;50.05;103939.41;5256628;28;20033;-67
2022/03/19 10:53:34;;;;;;;10.05;3.70;;;;;;;10.53;51.11;103936.75;5255399;28;20251;-67
2022/03/19 10:56:06;;;;;;;8.10;3.15;;;;;;;10.66;49.14;103931.97;5255161;28;20035;-67
2022/03/19 10:58:38;;;;;;;7.15;3.10;;;;;;;10.71;48.54;103924.66;5254645;28;20039;-68
2022/03/19 11:01:09;;;;;;;8.32;2.95;;;;;;;10.69;48.37;103917.63;5256116;28;20017;-67
2022/03/19 11:03:42;;;;;;;6.85;3.10;;;;;;;10.75;49.19;103922.78;5254001;28;20092;-68
2022/03/19 11:06:15;;;;;;;9.60;3.67;;;;;;;10.90;47.45;103917.03;5254477;28;20036;-67
2022/03/19 11:08:47;;;;;;;10.70;3.00;;;;;;;10.98;47.04;103912.31;5252359;28;20032;-67
2022/03/19 11:11:47;;;;;;;9.05;3.15;;;;;;;11.02;46.10;103905.09;5254668;28;20033;-67
2022/03/19 11:14:24;;;;;;;9.00;2.95;;;;;;;11.17;45.62;103904.66;5254837;28;20041;-68
2022/03/19 11:19:59;;;;;;;8.20;2.90;;;;;;;11.15;43.94;103895.78;5252760;28;20037;-67
2022/03/19 11:22:41;;;;;;;6.30;2.90;;;;;;;11.23;43.23;103887.56;5253666;28;20036;-68
2022/03/19 11:25:27;;;;;;;6.55;2.85;;;;;;;11.27;42.13;103885.66;5252819;28;20017;-68
2022/03/19 11:28:03;;;;;;;8.63;2.85;;;;;;;11.32;42.11;103889.09;5256074;28;20476;-68
2022/03/19 11:30:45;;;;;;;7.50;3.00;;;;;;;11.44;41.78;103877.13;5254035;28;20530;-68
2022/03/19 11:33:18;;;;;;;6.32;2.67;;;;;;;11.51;41.17;103868.84;5253787;28;20025;-68
2022/03/19 11:35:58;;;;;;;5.33;2.70;;;;;;;11.51;41.17;103871.53;5253594;28;20028;-68
2022/03/19 11:38:33;;;;;;;8.75;2.90;;;;;;;11.51;39.28;103862.66;5254085;28;20037;-68
2022/03/19 11:41:18;;;;;;;7.43;2.80;;;;;;;11.49;40.04;103868.03;5253517;28;20039;-68
2022/03/19 11:43:50;;;;;;;7.35;2.85;;;;;;;11.56;38.77;103864.25;5255842;28;20032;-68
2022/03/19 11:46:21;;;;;;;4.72;2.47;;;;;;;11.54;39.63;103860.75;5254702;28;20031;-67
2022/03/19 11:48:54;;;;;;;7.55;2.90;;;;;;;11.55;39.25;103851.78;5253083;28;20371;-68
2022/03/19 11:51:25;;;;;;;8.35;2.75;;;;;;;11.62;39.12;103843.56;5254109;28;20102;-68
2022/03/19 11:54:15;;;;;;;11.30;2.70;;;;;;;11.70;38.52;103845.06;5253044;28;20435;-68
2022/03/19 11:56:47;;;;;;;7.28;2.70;;;;;;;11.78;38.95;103829.63;5253209;28;20039;-67